This is the latest recevied weather packets stored in our database for station/object KF5WCW-1. If no packets are shown the sender has not sent any weather packets the latest 1 day(s).
| Time | Temp. | Humidity | Pressure | Rain* | Wind** | Luminosity | Snow |
|---|---|---|---|---|---|---|---|
| 1778027768 | 12.78° C | 44% | 0 hPa | 0 mm | 6.26 m/s, 300° | - | - |
| 1778027468 | 13.89° C | 30% | 0 hPa | 0 mm | 0 m/s | - | - |
| 1778027169 | 13.89° C | 30% | 0 hPa | 0 mm | 2.68 m/s, 330° | - | - |
| 1778026869 | 13.89° C | 30% | 0 hPa | 0 mm | 2.24 m/s, 309° | - | - |
| 1778026569 | 13.33° C | 31% | 0 hPa | 0 mm | 2.68 m/s, 286° | - | - |
| 1778026269 | 13.33° C | 37% | 0 hPa | 0 mm | 0 m/s | - | - |
| 1778025969 | 12.78° C | 37% | 0 hPa | 0 mm | 0.89 m/s, 35° | - | - |
| 1778025669 | 12.22° C | 40% | 0 hPa | 0 mm | 0.89 m/s, 45° | - | - |
| 1778025369 | 12.22° C | 44% | 0 hPa | 0 mm | 0 m/s | - | - |
| 1778025069 | 11.67° C | 44% | 0 hPa | 0 mm | 4.02 m/s, 180° | - | - |
| 1778024769 | 11.67° C | 46% | 0 hPa | 0 mm | 1.79 m/s, 195° | - | - |
| 1778024469 | 11.11° C | 47% | 0 hPa | 0 mm | 4.47 m/s, 140° | - | - |
| 1778024169 | 11.11° C | 48% | 0 hPa | 0 mm | 5.36 m/s, 168° | - | - |
| 1778023869 | 10.56° C | 50% | 0 hPa | 0 mm | 5.36 m/s, 180° | - | - |
| 1778023569 | 10.56° C | 52% | 0 hPa | 0 mm | 4.02 m/s, 149° | - | - |
| 1778023269 | 10.56° C | 53% | 0 hPa | 0 mm | 7.6 m/s, 168° | - | - |
| 1778022969 | 10° C | 53% | 0 hPa | 0 mm | 4.02 m/s, 160° | - | - |
| 1778022669 | 10° C | 55% | 0 hPa | 0 mm | 2.68 m/s, 70° | - | - |
| 1778022369 | 9.44° C | 56% | 0 hPa | 0 mm | 4.02 m/s, 177° | - | - |
| 1778022069 | 10° C | 55% | 0 hPa | 0 mm | 3.58 m/s, 170° | - | - |
| 1778021769 | 10° C | 55% | 0 hPa | 0 mm | 4.47 m/s, 212° | - | - |
| 1778021469 | 10.56° C | 55% | 0 hPa | 0 mm | 4.02 m/s, 160° | - | - |
| 1778021169 | 10° C | 55% | 0 hPa | 0 mm | 7.15 m/s, 143° | - | - |
| 1778020869 | 10° C | 54% | 0 hPa | 0 mm | 4.02 m/s, 177° | - | - |
| 1778020569 | 11.11° C | 54% | 0 hPa | 0 mm | 4.02 m/s, 191° | - | - |
* Rain latest hour (hover to see other rain measurements)
** Current wind speed in m/s (hover to see current wind gust speed)